CWOB

Brevoort Island  Airport

Canada

CWOB 241408Z AUTO 03024G31KT ////SM //// OVC003 M08/M08 A2917

Observed Flight Rules
Nov-24 @ 14:08 UTC (53 minutes ago)
Unavailable
Wind Clouds
30° at 24 knots
 Gusting to 31 knots
  • Overcast at 300' AGL
Temperatures Readings
Current -8°C / 18°F
Dewpoint -8°C / 18°F
Humidity 100%
Altimeter 29.17" Hg
Pressure 988 hPa
Elevation 367
Observed Flight Rules
Nov-24 @ 14:08 UTC
(53 minutes ago)
UNK
Wind
30° at 24 knots
 Gusting to 31 knots
Clouds
  • Overcast at 300' AGL
Temperature Dewpoint
-8°C / 18°F -8°C / 18°F
Humidity Altimeter Pressure
100% 29.17" Hg 988 hPa